createdAt,value
2019-02-26T01:07:49.439Z,4.8
2019-02-26T03:24:17.824Z,5.4
2019-02-26T05:03:04.906Z,4.6
2019-02-26T05:17:20.849Z,3.7
2019-02-26T05:27:33.092Z,1.0
2019-02-26T05:39:14.024Z,1.0
2019-02-26T05:49:25.123Z,0.9
2019-02-26T05:59:50.626Z,0.9
2019-02-26T06:10:03.957Z,1.0
2019-02-26T06:20:45.771Z,1.2
2019-02-26T06:30:59.675Z,0.9
2019-02-26T06:41:12.823Z,1.0
2019-02-26T06:51:38.275Z,0.6
2019-02-26T07:02:50.770Z,1.8
2019-02-26T07:13:53.643Z,3.8
2019-02-26T07:24:07.723Z,2.3
2019-02-26T07:35:39.741Z,1.4
2019-02-26T07:47:14.623Z,4.4
2019-02-26T07:58:19.725Z,4.4
2019-02-26T08:08:33.313Z,3.8
2019-02-26T08:19:03.035Z,2.0
2019-02-26T08:29:45.792Z,1.7
2019-02-26T08:40:28.711Z,2.3
2019-02-26T08:50:43.936Z,3.9
2019-02-26T09:01:13.718Z,4.2
2019-02-26T09:12:32.671Z,5.8
2019-02-26T09:22:54.484Z,7.6
2019-02-26T09:34:12.895Z,9.8
2019-02-26T09:45:29.586Z,8.4
2019-02-26T09:56:22.220Z,7.9
2019-02-26T10:07:57.152Z,7.5
2019-02-26T10:18:16.462Z,9.1
2019-02-26T10:30:04.547Z,11.7
2019-02-26T10:41:25.496Z,7.1
2019-02-26T10:51:45.759Z,7.8
2019-02-26T11:02:48.432Z,9.1
2019-02-26T11:14:05.226Z,7.9
2019-02-26T11:24:16.992Z,6.1
2019-02-26T11:35:31.558Z,10.0
2019-02-26T11:45:45.006Z,6.4
2019-02-26T11:55:59.919Z,6.8
2019-02-26T12:18:41.542Z,6.2
2019-02-26T12:47:07.198Z,6.9
2019-02-26T12:58:14.311Z,5.9
2019-02-26T13:08:59.496Z,3.8
2019-02-26T13:23:16.411Z,6.7
2019-02-26T13:33:27.504Z,4.5
2019-02-26T14:01:20.772Z,4.6
2019-02-26T14:28:27.863Z,8.0
2019-02-26T14:39:27.761Z,5.1
2019-02-26T14:49:59.615Z,3.6
2019-02-26T15:00:21.138Z,3.9
2019-02-26T15:10:32.948Z,5.6
2019-02-26T15:21:54.004Z,4.1
2019-02-26T15:32:05.412Z,4.4
2019-02-26T15:44:32.666Z,6.1
2019-02-26T15:55:34.712Z,5.2
2019-02-26T16:08:53.347Z,6.5
2019-02-26T16:20:54.672Z,6.4
2019-02-26T16:31:14.403Z,3.8
2019-02-26T16:41:35.599Z,3.9
2019-02-26T16:52:37.952Z,6.4
2019-02-26T17:02:57.643Z,3.8
2019-02-26T17:14:57.269Z,5.3
2019-02-26T17:25:42.550Z,6.3
2019-02-26T17:51:49.636Z,5.1
2019-02-26T18:02:09.871Z,3.8
2019-02-26T18:13:23.234Z,5.1
2019-02-26T18:24:01.314Z,3.0
2019-02-26T18:34:53.442Z,5.4
2019-02-26T18:45:27.930Z,5.3
2019-02-26T18:55:45.056Z,4.2
2019-02-26T19:06:50.853Z,4.7
2019-02-26T19:49:11.104Z,9.6
2019-02-26T20:03:56.491Z,7.0
2019-02-26T21:27:01.318Z,9.4
2019-02-26T21:38:22.829Z,4.0
2019-02-26T21:48:49.387Z,3.5
2019-02-26T21:59:02.802Z,2.5
2019-02-26T22:09:24.873Z,2.8
2019-02-26T22:19:37.701Z,3.2
2019-02-26T22:29:48.752Z,3.6
2019-02-26T22:40:01.986Z,1.5
2019-02-26T22:50:24.926Z,2.4
2019-02-26T23:03:45.649Z,5.4
2019-02-26T23:15:20.468Z,4.4
2019-02-26T23:26:03.001Z,1.5
2019-02-26T23:37:28.237Z,4.8
2019-02-26T23:48:13.786Z,2.5
2019-02-26T23:59:03.898Z,1.7
